Terminal Aerodrome Forecast
Issued by NWS

Home | Current Version | Previous Version | Text Only | Print | Product List | Glossary On
Versions: 1 2 3 4 5 6 7 8 9 10 11 12 13 14 15
000
FTAK31 PAJN 270500
TAFAJN
TAF
PAJN 270521Z 2706/2806 08004KT P6SM SCT040 BKN060
      TEMPO 2709/2713 3SM BR BKN005
     FM271600 VRB05KT P6SM BCFG FEW010 SCT100
     FM272000 VRB05KT P6SM SCT030 BKN150
     FM280300 10005KT P6SM SCT030 BKN080=

USA.gov is the U.S. government's official web portal to all federal, state and local government web resources and services.